Time;durP1;ratioP1;P1;durP2;ratioP2;P2;SDS_P1;SDS_P2;PMS_P1;PMS_P2;Temp;Humidity;BMP_temperature;BMP_pressure;BME280_temperature;BME280_humidity;BME280_pressure;Samples;Min_cycle;Max_cycle;Signal;HPM_P1;HPM_P2
2022/01/22 00:00:07;;;;;;;20.03;9.63;;;;;;;;;;5057361;28;20217;-75
2022/01/22 00:02:34;;;;;;;16.33;8.47;;;;;;;;;;5059033;28;20218;-75
2022/01/22 00:05:02;;;;;;;18.77;8.90;;;;;;;;;;5060703;28;20823;-75
2022/01/22 00:07:30;;;;;;;17.93;8.57;;;;;;;;;;5063085;28;20226;-76
2022/01/22 00:10:03;;;;;;;20.37;8.93;;;;;;;;;;5061898;28;20203;-76
2022/01/22 00:12:55;;;;;;;19.17;8.03;;;;;;;;;;5061131;28;20247;-75
2022/01/22 00:15:22;;;;;;;14.43;7.20;;;;;;;;;;5062340;28;20209;-74
2022/01/22 00:17:50;;;;;;;14.97;8.43;;;;;;;;;;5062460;28;20280;-75
2022/01/22 00:20:18;;;;;;;14.93;8.30;;;;;;;;;;5066080;28;20297;-75
2022/01/22 00:22:47;;;;;;;13.80;7.87;;;;;;;;;;5066619;28;20232;-75
2022/01/22 00:25:15;;;;;;;15.07;8.20;;;;;;;;;;5063014;28;20294;-75
2022/01/22 00:27:43;;;;;;;12.97;6.80;;;;;;;;;;5065891;28;20318;-75
2022/01/22 00:30:12;;;;;;;12.00;7.47;;;;;;;;;;5062360;28;20203;-75
2022/01/22 00:32:39;;;;;;;10.70;6.43;;;;;;;;;;5064143;28;20232;-75
2022/01/22 00:35:12;;;;;;;12.57;7.90;;;;;;;;;;5055212;28;20509;-75
2022/01/22 00:37:43;;;;;;;12.23;6.97;;;;;;;;;;5053699;28;20256;-74
2022/01/22 00:40:13;;;;;;;9.60;6.70;;;;;;;;;;5054665;28;20226;-75
2022/01/22 00:42:40;;;;;;;11.97;6.10;;;;;;;;;;5056861;28;20246;-75
2022/01/22 00:45:08;;;;;;;13.00;6.20;;;;;;;;;;5055326;28;20910;-75
2022/01/22 00:47:35;;;;;;;9.27;5.60;;;;;;;;;;5060531;28;20301;-75
2022/01/22 00:50:02;;;;;;;16.20;8.87;;;;;;;;;;5063060;28;20220;-75
2022/01/22 00:52:29;;;;;;;16.23;9.20;;;;;;;;;;5063256;28;20226;-75
2022/01/22 00:54:56;;;;;;;8.50;5.53;;;;;;;;;;5063206;28;20210;-74
2022/01/22 00:57:25;;;;;;;8.60;4.50;;;;;;;;;;5057756;28;20202;-74
2022/01/22 00:59:54;;;;;;;7.90;4.07;;;;;;;;;;5056677;28;20691;-75
2022/01/22 01:02:21;;;;;;;9.57;6.50;;;;;;;;;;5055852;28;20207;-74
2022/01/22 01:04:48;;;;;;;7.20;4.20;;;;;;;;;;5059019;28;20562;-75
2022/01/22 01:07:15;;;;;;;5.40;3.60;;;;;;;;;;5056540;28;20593;-75
2022/01/22 01:09:42;;;;;;;6.37;3.63;;;;;;;;;;5058958;28;20218;-75
2022/01/22 01:12:12;;;;;;;5.43;3.83;;;;;;;;;;5055098;28;20301;-75
2022/01/22 01:14:46;;;;;;;6.20;3.07;;;;;;;;;;5058229;28;20218;-75
2022/01/22 01:17:34;;;;;;;5.80;3.80;;;;;;;;;;5056204;28;20287;-75
2022/01/22 01:33:56;;;;;;;6.47;3.70;;;;;;;;;;5031151;28;20284;-74
2022/01/22 01:36:23;;;;;;;6.40;4.57;;;;;;;;;;5056864;28;20211;-74
2022/01/22 01:38:54;;;;;;;6.33;4.20;;;;;;;;;;5054904;28;20646;-74
2022/01/22 01:41:29;;;;;;;5.87;3.87;;;;;;;;;;5057689;28;20225;-74
2022/01/22 01:43:56;;;;;;;7.10;4.70;;;;;;;;;;5056351;28;20221;-74
2022/01/22 01:46:26;;;;;;;6.43;4.37;;;;;;;;;;5055700;28;20676;-75
2022/01/22 01:48:53;;;;;;;6.67;4.70;;;;;;;;;;5055274;28;20300;-75
2022/01/22 01:51:23;;;;;;;7.50;4.57;;;;;;;;;;5055407;28;20297;-75
2022/01/22 01:53:58;;;;;;;6.70;4.40;;;;;;;;;;5055578;28;20218;-75
2022/01/22 01:59:10;;;;;;;9.17;4.33;;;;;;;;;;5055257;28;20403;-75
2022/01/22 02:01:39;;;;;;;6.40;4.53;;;;;;;;;;5056543;28;20641;-75
2022/01/22 02:04:09;;;;;;;6.67;4.13;;;;;;;;;;5054944;28;20219;-75
2022/01/22 02:06:36;;;;;;;6.30;4.03;;;;;;;;;;5054356;28;20738;-75
2022/01/22 02:09:06;;;;;;;5.73;4.07;;;;;;;;;;5053722;28;20215;-74
2022/01/22 02:11:34;;;;;;;7.33;4.40;;;;;;;;;;5053879;28;20252;-74
2022/01/22 02:14:08;;;;;;;6.53;4.30;;;;;;;;;;5054996;28;20700;-75
2022/01/22 02:24:55;;;;;;;6.60;3.90;;;;;;;;;;5056854;28;20704;-75
2022/01/22 02:27:22;;;;;;;4.83;3.40;;;;;;;;;;5056230;28;20548;-74
2022/01/22 02:29:50;;;;;;;7.10;4.37;;;;;;;;;;5058230;28;20230;-75
2022/01/22 02:32:49;;;;;;;5.60;3.77;;;;;;;;;;5056690;28;20660;-74
2022/01/22 02:35:24;;;;;;;6.40;4.07;;;;;;;;;;5049005;28;20190;-74
2022/01/22 02:37:58;;;;;;;8.27;4.13;;;;;;;;;;5057508;28;20256;-75
2022/01/22 02:40:28;;;;;;;7.00;3.80;;;;;;;;;;5055209;28;20293;-75
2022/01/22 02:42:55;;;;;;;5.97;4.07;;;;;;;;;;5056333;28;20234;-75
2022/01/22 02:45:23;;;;;;;7.20;4.43;;;;;;;;;;5054490;28;20226;-75
2022/01/22 02:47:51;;;;;;;7.53;4.77;;;;;;;;;;5055370;28;20226;-75
2022/01/22 02:50:18;;;;;;;8.00;4.90;;;;;;;;;;5056378;28;20202;-75
2022/01/22 02:52:45;;;;;;;7.03;4.73;;;;;;;;;;5054528;28;20777;-75
2022/01/22 02:55:14;;;;;;;7.23;4.67;;;;;;;;;;5055401;28;20203;-75
2022/01/22 02:57:43;;;;;;;6.80;4.80;;;;;;;;;;5059028;28;20297;-75
2022/01/22 03:00:12;;;;;;;7.53;4.90;;;;;;;;;;5056488;28;20206;-75
2022/01/22 03:02:39;;;;;;;7.17;4.67;;;;;;;;;;5055549;28;20721;-75
2022/01/22 03:05:06;;;;;;;6.87;4.50;;;;;;;;;;5055436;28;20619;-74
2022/01/22 03:07:35;;;;;;;8.47;5.07;;;;;;;;;;5057674;28;20372;-74
2022/01/22 03:10:03;;;;;;;6.50;4.30;;;;;;;;;;5059815;28;20199;-75
2022/01/22 03:12:52;;;;;;;6.93;4.40;;;;;;;;;;5059172;28;20249;-75
2022/01/22 03:18:08;;;;;;;7.67;4.70;;;;;;;;;;5057244;28;20285;-74
2022/01/22 03:21:01;;;;;;;6.73;4.33;;;;;;;;;;5059583;28;20293;-74
2022/01/22 03:29:03;;;;;;;9.97;4.97;;;;;;;;;;5064316;28;20276;-75
2022/01/22 03:31:32;;;;;;;7.50;4.57;;;;;;;;;;5063878;28;20561;-75
2022/01/22 03:33:59;;;;;;;6.00;3.93;;;;;;;;;;5062778;28;20221;-75
2022/01/22 03:36:29;;;;;;;7.10;4.50;;;;;;;;;;5060413;28;20198;-75
2022/01/22 03:38:56;;;;;;;7.00;4.43;;;;;;;;;;5062616;28;20575;-75
2022/01/22 03:41:24;;;;;;;8.03;4.90;;;;;;;;;;5058810;28;20207;-75
2022/01/22 03:43:51;;;;;;;5.87;3.70;;;;;;;;;;5062183;28;20689;-74
2022/01/22 03:46:20;;;;;;;9.13;5.00;;;;;;;;;;5065790;28;20212;-75
2022/01/22 03:48:48;;;;;;;6.83;4.60;;;;;;;;;;5060287;28;20689;-75
2022/01/22 03:51:15;;;;;;;8.50;4.87;;;;;;;;;;5060522;28;20599;-75
2022/01/22 03:53:42;;;;;;;7.63;5.17;;;;;;;;;;5057357;28;20712;-75
2022/01/22 03:56:11;;;;;;;8.60;5.40;;;;;;;;;;5056786;28;20211;-74
2022/01/22 03:58:39;;;;;;;8.63;5.20;;;;;;;;;;5059740;28;20229;-75
2022/01/22 04:01:33;;;;;;;11.23;5.20;;;;;;;;;;5057759;28;20214;-75
2022/01/22 04:04:05;;;;;;;8.93;5.50;;;;;;;;;;5057802;28;20226;-74
2022/01/22 04:09:19;;;;;;;8.73;5.50;;;;;;;;;;5060353;28;20233;-76
2022/01/22 04:11:47;;;;;;;11.70;6.10;;;;;;;;;;5055195;28;20506;-74
2022/01/22 04:14:19;;;;;;;12.37;6.40;;;;;;;;;;5058273;28;20587;-76
2022/01/22 04:17:00;;;;;;;10.20;6.87;;;;;;;;;;5057323;28;20302;-74
2022/01/22 04:25:03;;;;;;;13.87;6.77;;;;;;;;;;5038482;28;20592;-75
2022/01/22 04:27:31;;;;;;;12.27;6.97;;;;;;;;;;5056082;28;20239;-74
2022/01/22 04:29:59;;;;;;;13.53;6.80;;;;;;;;;;5057543;28;20230;-75
2022/01/22 04:32:27;;;;;;;11.47;7.27;;;;;;;;;;5057495;28;20209;-75
2022/01/22 04:34:55;;;;;;;12.13;6.70;;;;;;;;;;5058210;28;20202;-75
2022/01/22 04:37:24;;;;;;;11.87;6.57;;;;;;;;;;5056492;28;20653;-74
2022/01/22 04:39:51;;;;;;;11.83;7.07;;;;;;;;;;5058212;28;20194;-75
2022/01/22 04:42:19;;;;;;;14.23;7.23;;;;;;;;;;5059080;28;20202;-75
2022/01/22 04:44:54;;;;;;;12.33;7.13;;;;;;;;;;5058204;28;20297;-75
2022/01/22 04:47:32;;;;;;;12.73;7.07;;;;;;;;;;5059078;28;21264;-75
2022/01/22 04:55:27;;;;;;;12.87;7.80;;;;;;;;;;5056712;28;20211;-75
2022/01/22 04:57:54;;;;;;;13.43;7.50;;;;;;;;;;5056277;28;20592;-75
2022/01/22 05:00:21;;;;;;;13.20;7.07;;;;;;;;;;5055387;28;20217;-75
2022/01/22 05:02:50;;;;;;;13.67;7.37;;;;;;;;;;5058994;28;20723;-75
2022/01/22 05:05:18;;;;;;;13.67;7.93;;;;;;;;;;5053625;28;20210;-75
2022/01/22 05:07:45;;;;;;;14.50;7.80;;;;;;;;;;5055985;28;20297;-74
2022/01/22 05:10:12;;;;;;;14.13;7.97;;;;;;;;;;5053976;28;20598;-75
2022/01/22 05:12:40;;;;;;;14.03;7.37;;;;;;;;;;5058385;28;20223;-75
2022/01/22 05:15:07;;;;;;;15.70;8.07;;;;;;;;;;5053959;28;20643;-75
2022/01/22 05:17:37;;;;;;;12.60;7.63;;;;;;;;;;5058279;28;20468;-74
2022/01/22 05:20:09;;;;;;;12.83;7.73;;;;;;;;;;5057275;28;20245;-74
2022/01/22 05:22:53;;;;;;;15.20;7.97;;;;;;;;;;5055633;28;20230;-74
2022/01/22 05:25:24;;;;;;;13.73;7.13;;;;;;;;;;5056879;28;20279;-75
2022/01/22 05:28:20;;;;;;;13.13;7.67;;;;;;;;;;5054298;28;20195;-76
2022/01/22 05:30:58;;;;;;;14.50;8.47;;;;;;;;;;5054692;28;20203;-75
2022/01/22 05:39:03;;;;;;;14.13;7.63;;;;;;;;;;5056935;28;20562;-75
2022/01/22 05:41:31;;;;;;;14.23;8.13;;;;;;;;;;5056366;28;20306;-74
2022/01/22 05:43:58;;;;;;;14.40;7.87;;;;;;;;;;5057118;28;20223;-75
2022/01/22 05:46:25;;;;;;;13.43;7.53;;;;;;;;;;5055193;28;20208;-76
2022/01/22 05:48:52;;;;;;;13.03;7.33;;;;;;;;;;5057459;28;20229;-76
2022/01/22 05:51:19;;;;;;;14.80;8.00;;;;;;;;;;5052687;28;20302;-75
2022/01/22 05:54:02;;;;;;;13.87;8.03;;;;;;;;;;5056416;28;20222;-75
2022/01/22 06:02:00;;;;;;;13.77;7.90;;;;;;;;;;5055502;28;20676;-75
2022/01/22 06:04:27;;;;;;;13.90;7.60;;;;;;;;;;5056484;28;20614;-74
2022/01/22 06:06:55;;;;;;;14.83;8.73;;;;;;;;;;5054132;28;20230;-75
2022/01/22 06:09:22;;;;;;;12.13;7.07;;;;;;;;;;5057937;28;20219;-74
2022/01/22 06:11:57;;;;;;;13.70;7.80;;;;;;;;;;5056332;28;20198;-76
2022/01/22 06:14:24;;;;;;;14.10;7.80;;;;;;;;;;5056641;28;20708;-74
2022/01/22 06:16:52;;;;;;;13.67;8.10;;;;;;;;;;5055823;28;20209;-75
2022/01/22 06:19:19;;;;;;;13.63;8.03;;;;;;;;;;5054673;28;20201;-75
2022/01/22 06:21:46;;;;;;;14.10;7.83;;;;;;;;;;5056426;28;20224;-75
2022/01/22 06:24:13;;;;;;;14.60;8.40;;;;;;;;;;5057860;28;20261;-75
2022/01/22 06:26:41;;;;;;;14.33;8.10;;;;;;;;;;5057427;28;20609;-75
2022/01/22 06:29:09;;;;;;;17.73;8.00;;;;;;;;;;5054882;28;20317;-75
2022/01/22 06:31:37;;;;;;;14.53;7.97;;;;;;;;;;5053252;28;20207;-75
2022/01/22 06:34:04;;;;;;;15.47;8.40;;;;;;;;;;5056824;28;20233;-75
2022/01/22 06:36:32;;;;;;;17.23;9.03;;;;;;;;;;5057128;28;20660;-75
2022/01/22 06:39:10;;;;;;;16.30;8.70;;;;;;;;;;5056475;28;20202;-75
2022/01/22 06:41:46;;;;;;;15.10;7.50;;;;;;;;;;5057862;28;20225;-75
2022/01/22 06:44:15;;;;;;;16.90;8.23;;;;;;;;;;5060079;28;20211;-75
2022/01/22 06:46:43;;;;;;;14.97;8.20;;;;;;;;;;5058992;28;20205;-75
2022/01/22 06:49:10;;;;;;;16.27;9.07;;;;;;;;;;5059108;28;20215;-75
2022/01/22 06:51:37;;;;;;;16.40;8.67;;;;;;;;;;5060397;28;20771;-74
2022/01/22 06:54:05;;;;;;;16.53;8.90;;;;;;;;;;5061670;28;20317;-74
2022/01/22 06:56:32;;;;;;;16.23;8.50;;;;;;;;;;5058417;28;20298;-74
2022/01/22 06:59:00;;;;;;;17.50;9.53;;;;;;;;;;5060413;28;20231;-75
2022/01/22 07:01:28;;;;;;;16.17;8.73;;;;;;;;;;5061616;28;20293;-74
2022/01/22 07:03:56;;;;;;;15.87;8.83;;;;;;;;;;5058733;28;20218;-74
2022/01/22 07:06:24;;;;;;;17.03;9.43;;;;;;;;;;5059563;28;20608;-76
2022/01/22 07:08:51;;;;;;;18.47;9.83;;;;;;;;;;5061758;28;20202;-75
2022/01/22 07:11:19;;;;;;;19.10;9.57;;;;;;;;;;5057302;28;20274;-75
2022/01/22 07:13:46;;;;;;;16.20;8.80;;;;;;;;;;5061165;28;20225;-75
2022/01/22 07:16:14;;;;;;;16.10;8.97;;;;;;;;;;5059146;28;20195;-76
2022/01/22 07:18:43;;;;;;;14.97;8.23;;;;;;;;;;5059540;28;20209;-75
2022/01/22 07:21:15;;;;;;;16.13;8.80;;;;;;;;;;5060860;28;20312;-76
2022/01/22 07:24:22;;;;;;;15.10;8.63;;;;;;;;;;5059938;28;20223;-75
2022/01/22 07:26:44;;;;;;;15.77;8.33;;;;;;;;;;5056946;28;20672;-76
2022/01/22 07:29:11;;;;;;;14.77;7.80;;;;;;;;;;5060433;28;20229;-75
2022/01/22 07:31:39;;;;;;;15.07;8.43;;;;;;;;;;5058434;28;20264;-75
2022/01/22 07:34:07;;;;;;;16.93;9.23;;;;;;;;;;5060474;28;20242;-76
2022/01/22 07:36:35;;;;;;;15.27;8.33;;;;;;;;;;5057037;28;20213;-75
2022/01/22 07:39:02;;;;;;;17.27;9.17;;;;;;;;;;5059716;28;20293;-76
2022/01/22 07:41:29;;;;;;;15.33;8.37;;;;;;;;;;5058767;28;20776;-75
2022/01/22 07:43:57;;;;;;;16.23;8.63;;;;;;;;;;5058708;28;20222;-75
2022/01/22 07:46:24;;;;;;;12.03;7.13;;;;;;;;;;5059930;28;20296;-76
2022/01/22 07:48:51;;;;;;;12.23;7.50;;;;;;;;;;5056478;28;20219;-75
2022/01/22 07:51:30;;;;;;;13.50;7.20;;;;;;;;;;5060942;28;20296;-75
2022/01/22 07:53:57;;;;;;;13.60;6.80;;;;;;;;;;5059538;28;20259;-75
2022/01/22 07:56:24;;;;;;;10.50;5.80;;;;;;;;;;5059526;28;20206;-75
2022/01/22 07:58:51;;;;;;;12.43;5.90;;;;;;;;;;5056078;28;20207;-74
2022/01/22 08:01:18;;;;;;;11.97;6.60;;;;;;;;;;5059643;28;20200;-76
2022/01/22 08:03:51;;;;;;;12.40;6.97;;;;;;;;;;5061014;28;20223;-74
2022/01/22 08:06:19;;;;;;;10.13;5.97;;;;;;;;;;5059175;28;20202;-75
2022/01/22 08:08:46;;;;;;;15.63;7.83;;;;;;;;;;5060175;28;20543;-75
2022/01/22 08:11:13;;;;;;;13.53;7.67;;;;;;;;;;5064333;28;20301;-75
2022/01/22 08:13:41;;;;;;;12.23;6.80;;;;;;;;;;5061553;28;20214;-76
2022/01/22 08:16:08;;;;;;;16.60;8.00;;;;;;;;;;5066825;28;20213;-74
2022/01/22 08:18:38;;;;;;;14.23;6.23;;;;;;;;;;5060876;28;20231;-75
2022/01/22 08:21:05;;;;;;;13.40;7.10;;;;;;;;;;5062909;28;20631;-74
2022/01/22 08:23:34;;;;;;;14.03;7.47;;;;;;;;;;5062891;28;20261;-74
2022/01/22 08:26:05;;;;;;;14.87;6.60;;;;;;;;;;5057135;28;20225;-74
2022/01/22 08:31:24;;;;;;;13.00;6.80;;;;;;;;;;5060926;28;20315;-74
2022/01/22 08:36:36;;;;;;;11.67;6.57;;;;;;;;;;5058269;28;20202;-75
2022/01/22 08:39:05;;;;;;;15.50;6.67;;;;;;;;;;5055367;28;20202;-75
2022/01/22 08:41:32;;;;;;;12.03;6.73;;;;;;;;;;5061099;28;20210;-75
2022/01/22 08:44:00;;;;;;;15.00;7.77;;;;;;;;;;5062884;28;20646;-75
2022/01/22 08:46:28;;;;;;;12.63;7.00;;;;;;;;;;5060250;28;20199;-74
2022/01/22 08:48:55;;;;;;;10.73;5.97;;;;;;;;;;5057410;28;20236;-75
2022/01/22 08:51:22;;;;;;;12.43;6.37;;;;;;;;;;5057890;28;20238;-75
2022/01/22 08:53:50;;;;;;;9.43;5.33;;;;;;;;;;5059589;28;20218;-75
2022/01/22 08:56:19;;;;;;;10.50;5.97;;;;;;;;;;5061923;28;20285;-75
2022/01/22 08:58:46;;;;;;;10.63;6.13;;;;;;;;;;5062600;28;21092;-75
2022/01/22 09:01:13;;;;;;;11.83;6.90;;;;;;;;;;5065188;28;20209;-75
2022/01/22 09:03:41;;;;;;;11.27;6.60;;;;;;;;;;5065576;28;20257;-75
2022/01/22 09:06:11;;;;;;;10.73;6.10;;;;;;;;;;5064332;28;20199;-75
2022/01/22 09:08:38;;;;;;;11.83;6.57;;;;;;;;;;5064589;28;20206;-75
2022/01/22 09:11:06;;;;;;;11.13;6.23;;;;;;;;;;5064815;28;20244;-76
2022/01/22 09:13:35;;;;;;;9.53;5.37;;;;;;;;;;5065639;28;20222;-74
2022/01/22 09:16:02;;;;;;;9.63;5.07;;;;;;;;;;5067672;28;20214;-75
2022/01/22 09:18:30;;;;;;;9.03;5.23;;;;;;;;;;5065736;28;20285;-75
2022/01/22 09:21:04;;;;;;;10.90;5.80;;;;;;;;;;5063482;28;20294;-75
2022/01/22 09:23:32;;;;;;;8.07;4.53;;;;;;;;;;5059585;28;20322;-75
2022/01/22 09:26:00;;;;;;;8.20;4.53;;;;;;;;;;5065653;28;20237;-75
2022/01/22 09:28:27;;;;;;;6.63;3.90;;;;;;;;;;5060682;28;20289;-75
2022/01/22 09:30:56;;;;;;;5.67;3.50;;;;;;;;;;5062995;28;20792;-74
2022/01/22 09:33:23;;;;;;;8.13;4.27;;;;;;;;;;5063590;28;20281;-75
2022/01/22 09:35:50;;;;;;;10.83;4.17;;;;;;;;;;5061307;28;20608;-75
2022/01/22 09:38:17;;;;;;;9.17;4.50;;;;;;;;;;5065815;28;20306;-75
2022/01/22 09:40:44;;;;;;;9.17;4.30;;;;;;;;;;5066611;28;20202;-75
2022/01/22 09:43:12;;;;;;;7.20;4.00;;;;;;;;;;5062006;28;20659;-75
2022/01/22 09:45:40;;;;;;;7.63;4.30;;;;;;;;;;5063402;28;20211;-75
2022/01/22 09:48:08;;;;;;;10.57;4.43;;;;;;;;;;5060998;28;20206;-75
2022/01/22 09:50:36;;;;;;;8.70;5.17;;;;;;;;;;5058797;28;20237;-75
2022/01/22 09:53:03;;;;;;;6.57;3.93;;;;;;;;;;5057470;28;20305;-74
2022/01/22 09:55:31;;;;;;;10.00;4.80;;;;;;;;;;5060145;28;20222;-75
2022/01/22 09:57:58;;;;;;;9.53;5.27;;;;;;;;;;5060936;28;20281;-76
2022/01/22 10:00:26;;;;;;;9.27;5.37;;;;;;;;;;5059900;28;20281;-74
2022/01/22 10:02:55;;;;;;;11.73;5.57;;;;;;;;;;5059845;28;20219;-74
2022/01/22 10:05:34;;;;;;;10.83;4.93;;;;;;;;;;5062477;28;20195;-74
2022/01/22 10:08:21;;;;;;;9.07;4.83;;;;;;;;;;5056803;28;20206;-75
2022/01/22 10:10:48;;;;;;;9.67;5.13;;;;;;;;;;5058791;28;20216;-74
2022/01/22 10:13:16;;;;;;;8.43;4.33;;;;;;;;;;5061528;28;20225;-75
2022/01/22 10:15:43;;;;;;;5.90;3.70;;;;;;;;;;5057349;28;20212;-75
2022/01/22 10:18:11;;;;;;;7.43;4.20;;;;;;;;;;5056474;28;20206;-74
2022/01/22 10:20:41;;;;;;;6.60;3.80;;;;;;;;;;5055248;28;20195;-77
2022/01/22 10:23:15;;;;;;;7.00;4.10;;;;;;;;;;5062109;28;20241;-77
2022/01/22 10:25:47;;;;;;;8.10;3.90;;;;;;;;;;5063440;28;20206;-77
2022/01/22 10:28:19;;;;;;;8.53;4.60;;;;;;;;;;5057594;28;20235;-77
2022/01/22 10:30:47;;;;;;;7.13;3.93;;;;;;;;;;5059711;28;20222;-77
2022/01/22 10:33:27;;;;;;;8.17;4.10;;;;;;;;;;5057789;28;20222;-77
2022/01/22 10:35:56;;;;;;;7.10;4.30;;;;;;;;;;5060603;28;20206;-77
2022/01/22 10:38:23;;;;;;;7.03;4.27;;;;;;;;;;5058850;28;20285;-77
2022/01/22 10:40:51;;;;;;;7.47;4.20;;;;;;;;;;5058878;28;20294;-77
2022/01/22 10:43:25;;;;;;;5.97;3.50;;;;;;;;;;5061458;28;20321;-77
2022/01/22 10:46:00;;;;;;;8.60;4.50;;;;;;;;;;5062771;28;20580;-77
2022/01/22 10:48:27;;;;;;;7.47;4.07;;;;;;;;;;5058870;28;20229;-77
2022/01/22 10:51:04;;;;;;;9.93;4.47;;;;;;;;;;5060080;28;20300;-77
2022/01/22 10:53:38;;;;;;;7.17;4.10;;;;;;;;;;5063081;28;20230;-77
2022/01/22 10:56:07;;;;;;;6.07;3.63;;;;;;;;;;5065161;28;20237;-77
2022/01/22 10:58:35;;;;;;;8.33;3.90;;;;;;;;;;5060612;28;20582;-77
2022/01/22 11:01:03;;;;;;;8.00;4.13;;;;;;;;;;5060613;28;20194;-77
2022/01/22 11:03:30;;;;;;;7.47;4.30;;;;;;;;;;5058277;28;20777;-78
2022/01/22 11:05:59;;;;;;;7.43;4.00;;;;;;;;;;5062930;28;20327;-77
2022/01/22 11:08:29;;;;;;;9.97;5.07;;;;;;;;;;5062101;28;20215;-77
2022/01/22 11:10:56;;;;;;;10.47;5.27;;;;;;;;;;5062276;28;20218;-77
2022/01/22 11:13:23;;;;;;;8.70;4.87;;;;;;;;;;5062748;28;20692;-77
2022/01/22 11:15:51;;;;;;;9.73;5.10;;;;;;;;;;5060535;28;20366;-77
2022/01/22 11:18:19;;;;;;;7.97;4.47;;;;;;;;;;5065586;28;20292;-77
2022/01/22 11:20:46;;;;;;;8.73;5.00;;;;;;;;;;5059843;28;20214;-77
2022/01/22 11:23:15;;;;;;;10.00;5.60;;;;;;;;;;5062980;28;20230;-77
2022/01/22 11:25:44;;;;;;;10.17;5.53;;;;;;;;;;5062949;28;20234;-77
2022/01/22 11:28:11;;;;;;;12.70;6.63;;;;;;;;;;5062423;28;20305;-77
2022/01/22 11:30:38;;;;;;;38.63;7.23;;;;;;;;;;5062280;28;20261;-77
2022/01/22 11:33:08;;;;;;;13.13;6.87;;;;;;;;;;5068460;28;20234;-78
2022/01/22 11:35:42;;;;;;;17.33;5.47;;;;;;;;;;5064283;28;20767;-77
2022/01/22 11:38:11;;;;;;;12.83;5.97;;;;;;;;;;5066820;28;20206;-77
2022/01/22 11:40:38;;;;;;;11.57;5.80;;;;;;;;;;5064813;28;20553;-77
2022/01/22 11:43:09;;;;;;;11.93;6.17;;;;;;;;;;5066932;28;20345;-77
2022/01/22 11:45:39;;;;;;;13.23;6.23;;;;;;;;;;5065275;28;20210;-78
2022/01/22 11:48:16;;;;;;;12.40;5.97;;;;;;;;;;5066711;28;20260;-77
2022/01/22 11:50:45;;;;;;;12.40;6.23;;;;;;;;;;5065442;28;20230;-77
2022/01/22 11:53:30;;;;;;;15.33;7.10;;;;;;;;;;5065333;28;20648;-77
2022/01/22 11:56:23;;;;;;;13.60;6.63;;;;;;;;;;5067071;28;20639;-77
2022/01/22 11:59:09;;;;;;;14.57;7.37;;;;;;;;;;5065794;28;20981;-77
2022/01/22 12:01:52;;;;;;;11.27;6.23;;;;;;;;;;5065056;28;20206;-77
2022/01/22 12:04:20;;;;;;;12.37;6.20;;;;;;;;;;5065646;28;20256;-77
2022/01/22 12:07:02;;;;;;;20.67;12.07;;;;;;;;;;5065592;28;20301;-77
2022/01/22 12:09:31;;;;;;;13.47;7.40;;;;;;;;;;5064848;28;20202;-77
2022/01/22 12:14:56;;;;;;;11.00;5.70;;;;;;;;;;5045310;28;20202;-77
2022/01/22 12:17:42;;;;;;;13.07;6.70;;;;;;;;;;5059963;28;20211;-77
2022/01/22 12:20:41;;;;;;;17.33;7.63;;;;;;;;;;5065369;28;20212;-78
2022/01/22 12:23:09;;;;;;;18.07;8.10;;;;;;;;;;5065858;28;20301;-77
2022/01/22 12:25:50;;;;;;;44.37;20.43;;;;;;;;;;5066292;28;20337;-77
2022/01/22 12:28:34;;;;;;;14.70;6.87;;;;;;;;;;5064735;28;20677;-77
2022/01/22 12:31:03;;;;;;;14.20;6.83;;;;;;;;;;5063941;28;20219;-77
2022/01/22 12:33:47;;;;;;;12.70;6.77;;;;;;;;;;5066517;28;20309;-77
2022/01/22 12:36:21;;;;;;;12.60;6.73;;;;;;;;;;5061872;28;20218;-76
2022/01/22 12:39:01;;;;;;;12.20;6.07;;;;;;;;;;5061685;28;20207;-77
2022/01/22 12:41:32;;;;;;;12.87;6.83;;;;;;;;;;5062421;28;20199;-78
2022/01/22 12:44:06;;;;;;;13.37;6.40;;;;;;;;;;5058030;28;20218;-77
2022/01/22 12:46:33;;;;;;;13.83;7.30;;;;;;;;;;5063466;28;20210;-77
2022/01/22 12:49:00;;;;;;;12.27;6.40;;;;;;;;;;5062593;28;20296;-77
2022/01/22 12:51:32;;;;;;;12.40;6.47;;;;;;;;;;5064051;28;20707;-78
2022/01/22 12:53:59;;;;;;;12.77;6.37;;;;;;;;;;5063949;28;20319;-78
2022/01/22 12:56:51;;;;;;;13.60;6.47;;;;;;;;;;5058747;28;20209;-78
2022/01/22 12:59:19;;;;;;;14.27;7.23;;;;;;;;;;5066113;28;20252;-78
2022/01/22 13:01:47;;;;;;;8.97;4.97;;;;;;;;;;5062318;28;20679;-78
2022/01/22 13:04:14;;;;;;;12.40;6.23;;;;;;;;;;5056879;28;20226;-78
2022/01/22 13:06:46;;;;;;;14.70;6.47;;;;;;;;;;5058717;28;20264;-78
2022/01/22 13:09:14;;;;;;;21.20;8.73;;;;;;;;;;5063230;28;20210;-78
2022/01/22 13:11:46;;;;;;;12.83;5.90;;;;;;;;;;5063083;28;20708;-78
2022/01/22 13:14:14;;;;;;;9.80;5.00;;;;;;;;;;5053810;28;20693;-78
2022/01/22 13:16:49;;;;;;;18.03;8.87;;;;;;;;;;5062809;28;20293;-78
2022/01/22 13:19:16;;;;;;;9.77;5.37;;;;;;;;;;5056532;28;20280;-78
2022/01/22 13:21:51;;;;;;;16.77;6.03;;;;;;;;;;5063546;28;20287;-77
2022/01/22 13:24:22;;;;;;;11.67;6.33;;;;;;;;;;5062168;28;20215;-78
2022/01/22 13:26:54;;;;;;;10.83;5.10;;;;;;;;;;5062381;28;20297;-78
2022/01/22 13:29:23;;;;;;;9.87;5.30;;;;;;;;;;5063776;28;20206;-78
2022/01/22 13:32:00;;;;;;;11.37;5.37;;;;;;;;;;5060492;28;20253;-78
2022/01/22 13:34:36;;;;;;;11.23;4.90;;;;;;;;;;5063642;28;20595;-78
2022/01/22 13:37:54;;;;;;;12.20;5.27;;;;;;;;;;5062251;28;20263;-78
2022/01/22 13:40:30;;;;;;;9.90;5.00;;;;;;;;;;5060743;28;20669;-78
2022/01/22 13:48:38;;;;;;;10.63;5.40;;;;;;;;;;5063627;28;20734;-78
2022/01/22 13:51:05;;;;;;;13.23;5.30;;;;;;;;;;5066001;28;22523;-78
2022/01/22 13:53:34;;;;;;;11.43;5.03;;;;;;;;;;5062514;28;20322;-78
2022/01/22 13:56:01;;;;;;;10.23;5.53;;;;;;;;;;5059756;28;20625;-78
2022/01/22 13:58:29;;;;;;;11.03;5.10;;;;;;;;;;5063000;28;20268;-78
2022/01/22 14:01:01;;;;;;;10.70;5.77;;;;;;;;;;5061299;28;20206;-78
2022/01/22 14:03:37;;;;;;;9.90;5.30;;;;;;;;;;5063476;28;20317;-78
2022/01/22 14:06:04;;;;;;;8.70;4.70;;;;;;;;;;5056768;28;20297;-78
2022/01/22 14:08:33;;;;;;;11.13;5.70;;;;;;;;;;5059794;28;20298;-78
2022/01/22 14:11:06;;;;;;;10.20;5.30;;;;;;;;;;5059055;28;20298;-78
2022/01/22 14:13:33;;;;;;;9.93;4.77;;;;;;;;;;5061356;28;20313;-78
2022/01/22 14:16:11;;;;;;;9.67;5.40;;;;;;;;;;5060308;28;20684;-78
2022/01/22 14:18:42;;;;;;;8.57;4.70;;;;;;;;;;5063368;28;20206;-78
2022/01/22 14:21:12;;;;;;;11.47;5.87;;;;;;;;;;5063556;28;20244;-78
2022/01/22 14:23:40;;;;;;;9.10;4.77;;;;;;;;;;5059030;28;20507;-78
2022/01/22 14:26:09;;;;;;;9.33;5.30;;;;;;;;;;5059475;28;20205;-78
2022/01/22 14:28:44;;;;;;;11.43;5.43;;;;;;;;;;5062618;28;20241;-78
2022/01/22 14:31:19;;;;;;;9.40;4.70;;;;;;;;;;5060897;28;20281;-78
2022/01/22 14:33:46;;;;;;;10.73;5.57;;;;;;;;;;5058803;28;20217;-78
2022/01/22 14:36:16;;;;;;;10.43;5.23;;;;;;;;;;5063242;28;20281;-78
2022/01/22 14:38:47;;;;;;;12.67;5.43;;;;;;;;;;5059440;28;20225;-78
2022/01/22 14:44:27;;;;;;;11.33;5.70;;;;;;;;;;5060189;28;20232;-78
2022/01/22 14:46:57;;;;;;;14.80;7.00;;;;;;;;;;5059958;28;20210;-78
2022/01/22 14:49:29;;;;;;;14.27;6.13;;;;;;;;;;5063046;28;20210;-78
2022/01/22 14:51:57;;;;;;;11.07;5.60;;;;;;;;;;5059163;28;20219;-78
2022/01/22 14:54:24;;;;;;;10.10;5.63;;;;;;;;;;5060100;28;20321;-78
2022/01/22 14:56:53;;;;;;;12.30;6.10;;;;;;;;;;5062463;28;20203;-78
2022/01/22 14:59:21;;;;;;;15.03;6.10;;;;;;;;;;5060285;28;20206;-78
2022/01/22 15:01:48;;;;;;;13.87;5.87;;;;;;;;;;5062660;28;20194;-78
2022/01/22 15:04:15;;;;;;;13.70;5.33;;;;;;;;;;5064591;28;20254;-77
2022/01/22 15:06:44;;;;;;;10.73;5.20;;;;;;;;;;5063237;28;20716;-78
2022/01/22 15:09:12;;;;;;;15.07;6.93;;;;;;;;;;5069646;28;20645;-78
2022/01/22 15:11:39;;;;;;;13.23;6.20;;;;;;;;;;5066246;28;20752;-79
2022/01/22 15:14:08;;;;;;;15.97;7.47;;;;;;;;;;5061015;28;20730;-78
2022/01/22 15:16:43;;;;;;;19.20;8.77;;;;;;;;;;5060974;28;20219;-78
2022/01/22 15:19:14;;;;;;;13.30;6.13;;;;;;;;;;5065493;28;20230;-78
2022/01/22 15:21:43;;;;;;;15.30;6.87;;;;;;;;;;5064114;28;20680;-77
2022/01/22 15:24:10;;;;;;;16.73;7.07;;;;;;;;;;5066498;28;20289;-77
2022/01/22 15:26:38;;;;;;;14.73;6.50;;;;;;;;;;5063996;28;20210;-77
2022/01/22 15:29:07;;;;;;;12.17;6.13;;;;;;;;;;5061183;28;20206;-77
2022/01/22 15:31:40;;;;;;;13.83;6.40;;;;;;;;;;5064348;28;20230;-77
2022/01/22 15:34:12;;;;;;;14.77;6.67;;;;;;;;;;5058513;28;20231;-78
2022/01/22 15:36:40;;;;;;;12.73;6.47;;;;;;;;;;5064487;28;20291;-78
2022/01/22 15:39:08;;;;;;;14.90;6.97;;;;;;;;;;5060763;28;20209;-77
2022/01/22 15:41:37;;;;;;;15.07;7.17;;;;;;;;;;5058517;28;20635;-77
2022/01/22 15:44:08;;;;;;;15.27;6.30;;;;;;;;;;5059510;28;20222;-77
2022/01/22 15:46:39;;;;;;;16.60;6.80;;;;;;;;;;5064565;28;20553;-78
2022/01/22 15:49:07;;;;;;;19.63;8.83;;;;;;;;;;5059430;28;20203;-78
2022/01/22 15:51:34;;;;;;;15.97;7.17;;;;;;;;;;5064254;28;20214;-78
2022/01/22 15:54:01;;;;;;;16.07;7.80;;;;;;;;;;5062428;28;20213;-78
2022/01/22 15:56:29;;;;;;;14.17;6.50;;;;;;;;;;5063941;28;20305;-78
2022/01/22 15:58:56;;;;;;;12.23;6.30;;;;;;;;;;5062771;28;20289;-79
2022/01/22 16:01:23;;;;;;;14.87;6.80;;;;;;;;;;5063485;28;20217;-79
2022/01/22 16:03:56;;;;;;;13.60;6.23;;;;;;;;;;5065774;28;20226;-79
2022/01/22 16:06:34;;;;;;;14.10;6.17;;;;;;;;;;5066468;28;20248;-79